sensor_id;sensor_type;location;lat;lon;timestamp;temperature;humidity
69776;DHT22;57049;51.450;-2.516;2023-01-31T00:00:21;5.16;95.71
69776;DHT22;57049;51.450;-2.516;2023-01-31T00:02:47;5.22;95.66
69776;DHT22;57049;51.450;-2.516;2023-01-31T00:05:12;5.25;95.72
69776;DHT22;57049;51.450;-2.516;2023-01-31T00:07:38;5.35;95.90
69776;DHT22;57049;51.450;-2.516;2023-01-31T00:10:03;5.39;95.83
69776;DHT22;57049;51.450;-2.516;2023-01-31T00:12:29;5.38;95.95
69776;DHT22;57049;51.450;-2.516;2023-01-31T00:14:54;5.36;96.01
69776;DHT22;57049;51.450;-2.516;2023-01-31T00:17:20;5.40;96.07
69776;DHT22;57049;51.450;-2.516;2023-01-31T00:19:45;5.42;96.05
69776;DHT22;57049;51.450;-2.516;2023-01-31T00:22:11;5.43;96.09
69776;DHT22;57049;51.450;-2.516;2023-01-31T00:24:36;5.49;95.97
69776;DHT22;57049;51.450;-2.516;2023-01-31T00:27:01;5.49;95.99
69776;DHT22;57049;51.450;-2.516;2023-01-31T00:29:27;5.53;95.82
69776;DHT22;57049;51.450;-2.516;2023-01-31T00:31:55;5.69;95.59
69776;DHT22;57049;51.450;-2.516;2023-01-31T00:34:20;5.70;95.35
69776;DHT22;57049;51.450;-2.516;2023-01-31T00:36:46;5.78;95.00
69776;DHT22;57049;51.450;-2.516;2023-01-31T00:39:11;5.80;94.72
69776;DHT22;57049;51.450;-2.516;2023-01-31T00:41:37;5.80;94.80
69776;DHT22;57049;51.450;-2.516;2023-01-31T00:44:04;5.78;94.66
69776;DHT22;57049;51.450;-2.516;2023-01-31T00:46:30;5.74;94.66
69776;DHT22;57049;51.450;-2.516;2023-01-31T00:48:55;5.67;94.63
69776;DHT22;57049;51.450;-2.516;2023-01-31T00:51:22;5.71;94.60
69776;DHT22;57049;51.450;-2.516;2023-01-31T00:53:48;5.74;94.59
69776;DHT22;57049;51.450;-2.516;2023-01-31T00:56:17;5.81;94.34
69776;DHT22;57049;51.450;-2.516;2023-01-31T00:58:43;5.90;94.14
69776;DHT22;57049;51.450;-2.516;2023-01-31T01:03:35;5.83;94.11
69776;DHT22;57049;51.450;-2.516;2023-01-31T01:06:00;5.85;94.03
69776;DHT22;57049;51.450;-2.516;2023-01-31T01:08:27;5.81;94.12
69776;DHT22;57049;51.450;-2.516;2023-01-31T01:10:53;5.93;93.91
69776;DHT22;57049;51.450;-2.516;2023-01-31T01:13:19;5.93;93.93
69776;DHT22;57049;51.450;-2.516;2023-01-31T01:15:44;5.98;93.75
69776;DHT22;57049;51.450;-2.516;2023-01-31T01:18:10;5.97;93.88
69776;DHT22;57049;51.450;-2.516;2023-01-31T01:20:35;5.94;93.79
69776;DHT22;57049;51.450;-2.516;2023-01-31T01:23:01;6.00;93.87
69776;DHT22;57049;51.450;-2.516;2023-01-31T01:25:27;6.04;93.63
69776;DHT22;57049;51.450;-2.516;2023-01-31T01:27:52;6.07;93.69
69776;DHT22;57049;51.450;-2.516;2023-01-31T01:30:18;6.08;93.79
69776;DHT22;57049;51.450;-2.516;2023-01-31T01:32:44;6.11;93.85
69776;DHT22;57049;51.450;-2.516;2023-01-31T01:35:10;6.16;93.75
69776;DHT22;57049;51.450;-2.516;2023-01-31T01:37:36;6.18;93.84
69776;DHT22;57049;51.450;-2.516;2023-01-31T01:40:02;6.22;93.78
69776;DHT22;57049;51.450;-2.516;2023-01-31T01:42:33;6.25;93.81
69776;DHT22;57049;51.450;-2.516;2023-01-31T01:45:00;6.28;93.62
69776;DHT22;57049;51.450;-2.516;2023-01-31T01:50:19;6.39;93.72
69776;DHT22;57049;51.450;-2.516;2023-01-31T01:53:16;6.38;93.92
69776;DHT22;57049;51.450;-2.516;2023-01-31T01:56:01;6.37;93.89
69776;DHT22;57049;51.450;-2.516;2023-01-31T01:58:57;6.41;94.01
69776;DHT22;57049;51.450;-2.516;2023-01-31T02:01:28;6.28;94.21
69776;DHT22;57049;51.450;-2.516;2023-01-31T02:03:57;6.38;93.97
69776;DHT22;57049;51.450;-2.516;2023-01-31T02:06:23;6.32;94.14
69776;DHT22;57049;51.450;-2.516;2023-01-31T02:08:49;6.38;94.14
69776;DHT22;57049;51.450;-2.516;2023-01-31T02:11:26;6.37;94.14
69776;DHT22;57049;51.450;-2.516;2023-01-31T02:13:57;6.31;94.28
69776;DHT22;57049;51.450;-2.516;2023-01-31T02:16:24;6.37;94.25
69776;DHT22;57049;51.450;-2.516;2023-01-31T02:18:49;6.34;94.30
69776;DHT22;57049;51.450;-2.516;2023-01-31T02:24:20;6.31;94.39
69776;DHT22;57049;51.450;-2.516;2023-01-31T02:27:14;6.29;94.31
69776;DHT22;57049;51.450;-2.516;2023-01-31T02:33:01;6.32;94.18
69776;DHT22;57049;51.450;-2.516;2023-01-31T02:38:22;6.29;94.22
69776;DHT22;57049;51.450;-2.516;2023-01-31T02:41:14;6.27;94.24
69776;DHT22;57049;51.450;-2.516;2023-01-31T02:43:48;6.25;94.40
69776;DHT22;57049;51.450;-2.516;2023-01-31T02:47:00;6.29;94.30
69776;DHT22;57049;51.450;-2.516;2023-01-31T02:50:19;6.29;94.43
69776;DHT22;57049;51.450;-2.516;2023-01-31T02:52:35;6.38;94.31
69776;DHT22;57049;51.450;-2.516;2023-01-31T02:57:55;6.38;94.28
69776;DHT22;57049;51.450;-2.516;2023-01-31T03:00:21;6.38;94.56
69776;DHT22;57049;51.450;-2.516;2023-01-31T03:02:48;6.44;94.86
69776;DHT22;57049;51.450;-2.516;2023-01-31T03:05:15;6.37;94.94
69776;DHT22;57049;51.450;-2.516;2023-01-31T03:07:41;6.39;95.09
69776;DHT22;57049;51.450;-2.516;2023-01-31T03:10:32;6.49;95.16
69776;DHT22;57049;51.450;-2.516;2023-01-31T03:16:10;6.32;95.28
69776;DHT22;57049;51.450;-2.516;2023-01-31T03:19:48;6.27;95.61
69776;DHT22;57049;51.450;-2.516;2023-01-31T03:22:23;6.28;95.82
69776;DHT22;57049;51.450;-2.516;2023-01-31T03:24:51;6.22;95.92
69776;DHT22;57049;51.450;-2.516;2023-01-31T03:27:17;6.35;95.72
69776;DHT22;57049;51.450;-2.516;2023-01-31T03:29:43;6.37;95.65
69776;DHT22;57049;51.450;-2.516;2023-01-31T03:32:21;6.42;95.63
69776;DHT22;57049;51.450;-2.516;2023-01-31T03:34:49;6.55;95.47
69776;DHT22;57049;51.450;-2.516;2023-01-31T03:37:36;6.56;95.40
69776;DHT22;57049;51.450;-2.516;2023-01-31T03:43:04;6.53;95.38
69776;DHT22;57049;51.450;-2.516;2023-01-31T03:45:46;6.64;95.28
69776;DHT22;57049;51.450;-2.516;2023-01-31T03:48:14;6.58;95.21
69776;DHT22;57049;51.450;-2.516;2023-01-31T03:50:57;6.61;95.18
69776;DHT22;57049;51.450;-2.516;2023-01-31T03:53:30;6.65;95.00
69776;DHT22;57049;51.450;-2.516;2023-01-31T03:56:08;6.64;95.00
69776;DHT22;57049;51.450;-2.516;2023-01-31T03:58:41;6.71;94.96
69776;DHT22;57049;51.450;-2.516;2023-01-31T04:01:10;6.73;94.84
69776;DHT22;57049;51.450;-2.516;2023-01-31T04:03:44;6.82;94.56
69776;DHT22;57049;51.450;-2.516;2023-01-31T04:06:10;6.82;94.49
69776;DHT22;57049;51.450;-2.516;2023-01-31T04:08:36;6.86;94.28
69776;DHT22;57049;51.450;-2.516;2023-01-31T04:11:04;6.85;94.29
69776;DHT22;57049;51.450;-2.516;2023-01-31T04:13:30;6.85;94.07
69776;DHT22;57049;51.450;-2.516;2023-01-31T04:15:56;6.92;93.89
69776;DHT22;57049;51.450;-2.516;2023-01-31T04:18:21;6.90;93.88
69776;DHT22;57049;51.450;-2.516;2023-01-31T04:20:46;6.90;93.84
69776;DHT22;57049;51.450;-2.516;2023-01-31T04:23:12;6.92;93.83
69776;DHT22;57049;51.450;-2.516;2023-01-31T04:25:37;6.90;93.88
69776;DHT22;57049;51.450;-2.516;2023-01-31T04:28:03;6.99;93.85
69776;DHT22;57049;51.450;-2.516;2023-01-31T04:30:28;7.00;93.60
69776;DHT22;57049;51.450;-2.516;2023-01-31T04:32:54;7.00;93.53
69776;DHT22;57049;51.450;-2.516;2023-01-31T04:35:19;6.96;93.69
69776;DHT22;57049;51.450;-2.516;2023-01-31T04:37:45;6.95;93.70
69776;DHT22;57049;51.450;-2.516;2023-01-31T04:40:10;6.92;93.84
69776;DHT22;57049;51.450;-2.516;2023-01-31T04:42:38;6.90;93.85
69776;DHT22;57049;51.450;-2.516;2023-01-31T04:45:04;6.96;93.89
69776;DHT22;57049;51.450;-2.516;2023-01-31T04:47:30;6.99;93.78
69776;DHT22;57049;51.450;-2.516;2023-01-31T04:49:55;6.93;94.08
69776;DHT22;57049;51.450;-2.516;2023-01-31T04:52:20;6.92;94.14
69776;DHT22;57049;51.450;-2.516;2023-01-31T04:54:48;6.93;94.09
69776;DHT22;57049;51.450;-2.516;2023-01-31T04:57:14;6.99;94.26
69776;DHT22;57049;51.450;-2.516;2023-01-31T04:59:39;7.04;94.30
69776;DHT22;57049;51.450;-2.516;2023-01-31T05:02:04;6.99;94.45
69776;DHT22;57049;51.450;-2.516;2023-01-31T05:04:30;7.07;94.46
69776;DHT22;57049;51.450;-2.516;2023-01-31T05:06:55;7.04;94.62
69776;DHT22;57049;51.450;-2.516;2023-01-31T05:09:21;6.97;94.99
69776;DHT22;57049;51.450;-2.516;2023-01-31T05:11:47;6.96;95.14
69776;DHT22;57049;51.450;-2.516;2023-01-31T05:14:13;7.02;95.17
69776;DHT22;57049;51.450;-2.516;2023-01-31T05:16:39;7.02;95.15
69776;DHT22;57049;51.450;-2.516;2023-01-31T05:19:05;7.12;95.21
69776;DHT22;57049;51.450;-2.516;2023-01-31T05:21:30;7.16;95.18
69776;DHT22;57049;51.450;-2.516;2023-01-31T05:24:16;7.19;95.32
69776;DHT22;57049;51.450;-2.516;2023-01-31T05:26:41;7.19;95.55
69776;DHT22;57049;51.450;-2.516;2023-01-31T05:29:06;7.20;95.67
69776;DHT22;57049;51.450;-2.516;2023-01-31T05:31:32;7.26;95.84
69776;DHT22;57049;51.450;-2.516;2023-01-31T05:33:57;7.24;96.01
69776;DHT22;57049;51.450;-2.516;2023-01-31T05:36:23;7.28;96.04
69776;DHT22;57049;51.450;-2.516;2023-01-31T05:38:48;7.28;96.11
69776;DHT22;57049;51.450;-2.516;2023-01-31T05:41:14;7.34;96.10
69776;DHT22;57049;51.450;-2.516;2023-01-31T05:43:40;7.33;96.08
69776;DHT22;57049;51.450;-2.516;2023-01-31T05:46:05;7.33;96.00
69776;DHT22;57049;51.450;-2.516;2023-01-31T05:48:31;7.35;96.02
69776;DHT22;57049;51.450;-2.516;2023-01-31T05:50:56;7.34;96.06
69776;DHT22;57049;51.450;-2.516;2023-01-31T05:53:22;7.27;96.29
69776;DHT22;57049;51.450;-2.516;2023-01-31T05:55:47;7.35;96.34
69776;DHT22;57049;51.450;-2.516;2023-01-31T05:58:14;7.43;96.64
69776;DHT22;57049;51.450;-2.516;2023-01-31T06:00:39;7.40;96.66
69776;DHT22;57049;51.450;-2.516;2023-01-31T06:03:05;7.48;96.90
69776;DHT22;57049;51.450;-2.516;2023-01-31T06:05:30;7.47;96.95
69776;DHT22;57049;51.450;-2.516;2023-01-31T06:07:56;7.53;97.20
69776;DHT22;57049;51.450;-2.516;2023-01-31T06:10:21;7.60;97.17
69776;DHT22;57049;51.450;-2.516;2023-01-31T06:12:47;7.64;97.43
69776;DHT22;57049;51.450;-2.516;2023-01-31T06:15:13;7.71;97.41
69776;DHT22;57049;51.450;-2.516;2023-01-31T06:17:38;7.82;97.50
69776;DHT22;57049;51.450;-2.516;2023-01-31T06:20:04;7.82;97.68
69776;DHT22;57049;51.450;-2.516;2023-01-31T06:22:30;7.89;97.72
69776;DHT22;57049;51.450;-2.516;2023-01-31T06:24:55;7.92;97.65
69776;DHT22;57049;51.450;-2.516;2023-01-31T06:27:21;7.98;97.81
69776;DHT22;57049;51.450;-2.516;2023-01-31T06:29:46;8.05;97.94
69776;DHT22;57049;51.450;-2.516;2023-01-31T06:32:11;8.13;97.95
69776;DHT22;57049;51.450;-2.516;2023-01-31T06:34:37;8.13;97.98
69776;DHT22;57049;51.450;-2.516;2023-01-31T06:37:03;8.12;98.15
69776;DHT22;57049;51.450;-2.516;2023-01-31T06:39:28;8.16;98.12
69776;DHT22;57049;51.450;-2.516;2023-01-31T06:41:53;8.24;98.10
69776;DHT22;57049;51.450;-2.516;2023-01-31T06:44:19;8.25;98.13
69776;DHT22;57049;51.450;-2.516;2023-01-31T06:46:44;8.22;98.13
69776;DHT22;57049;51.450;-2.516;2023-01-31T06:49:10;8.25;98.12
69776;DHT22;57049;51.450;-2.516;2023-01-31T06:51:35;8.33;98.03
69776;DHT22;57049;51.450;-2.516;2023-01-31T06:54:01;8.35;97.96
69776;DHT22;57049;51.450;-2.516;2023-01-31T06:56:26;8.39;97.97
69776;DHT22;57049;51.450;-2.516;2023-01-31T06:58:52;8.30;98.05
69776;DHT22;57049;51.450;-2.516;2023-01-31T07:01:17;8.39;98.17
69776;DHT22;57049;51.450;-2.516;2023-01-31T07:03:42;8.40;98.09
69776;DHT22;57049;51.450;-2.516;2023-01-31T07:06:09;8.40;98.03
69776;DHT22;57049;51.450;-2.516;2023-01-31T07:08:35;8.43;97.98
69776;DHT22;57049;51.450;-2.516;2023-01-31T07:11:01;8.45;98.04
69776;DHT22;57049;51.450;-2.516;2023-01-31T07:13:27;8.45;98.00
69776;DHT22;57049;51.450;-2.516;2023-01-31T07:15:53;8.42;98.02
69776;DHT22;57049;51.450;-2.516;2023-01-31T07:18:19;8.40;98.08
69776;DHT22;57049;51.450;-2.516;2023-01-31T07:20:44;8.42;98.05
69776;DHT22;57049;51.450;-2.516;2023-01-31T07:23:10;8.37;98.08
69776;DHT22;57049;51.450;-2.516;2023-01-31T07:25:35;8.42;97.99
69776;DHT22;57049;51.450;-2.516;2023-01-31T07:28:01;8.40;97.93
69776;DHT22;57049;51.450;-2.516;2023-01-31T07:30:27;8.39;97.97
69776;DHT22;57049;51.450;-2.516;2023-01-31T07:32:53;8.45;97.90
69776;DHT22;57049;51.450;-2.516;2023-01-31T07:35:19;8.49;97.87
69776;DHT22;57049;51.450;-2.516;2023-01-31T07:37:45;8.45;97.88
69776;DHT22;57049;51.450;-2.516;2023-01-31T07:40:12;8.49;97.97
69776;DHT22;57049;51.450;-2.516;2023-01-31T07:42:39;8.46;97.93
69776;DHT22;57049;51.450;-2.516;2023-01-31T07:45:06;8.52;98.02
69776;DHT22;57049;51.450;-2.516;2023-01-31T07:47:31;8.49;98.04
69776;DHT22;57049;51.450;-2.516;2023-01-31T07:49:59;8.47;98.03
69776;DHT22;57049;51.450;-2.516;2023-01-31T07:52:25;8.43;98.17
69776;DHT22;57049;51.450;-2.516;2023-01-31T07:54:50;8.43;98.20
69776;DHT22;57049;51.450;-2.516;2023-01-31T07:57:15;8.49;98.13
69776;DHT22;57049;51.450;-2.516;2023-01-31T07:59:42;8.52;98.17
69776;DHT22;57049;51.450;-2.516;2023-01-31T08:02:13;8.54;98.12
69776;DHT22;57049;51.450;-2.516;2023-01-31T08:04:58;8.49;98.23
69776;DHT22;57049;51.450;-2.516;2023-01-31T08:07:25;8.52;98.25
69776;DHT22;57049;51.450;-2.516;2023-01-31T08:09:50;8.59;98.23
69776;DHT22;57049;51.450;-2.516;2023-01-31T08:12:16;8.59;98.22
69776;DHT22;57049;51.450;-2.516;2023-01-31T08:14:42;8.52;98.22
69776;DHT22;57049;51.450;-2.516;2023-01-31T08:17:07;8.54;98.30
69776;DHT22;57049;51.450;-2.516;2023-01-31T08:19:33;8.54;98.44
69776;DHT22;57049;51.450;-2.516;2023-01-31T08:21:59;8.54;98.59
69776;DHT22;57049;51.450;-2.516;2023-01-31T08:24:25;8.59;98.63
69776;DHT22;57049;51.450;-2.516;2023-01-31T08:26:50;8.57;98.73
69776;DHT22;57049;51.450;-2.516;2023-01-31T08:29:16;8.59;98.83
69776;DHT22;57049;51.450;-2.516;2023-01-31T08:31:41;8.61;98.96
69776;DHT22;57049;51.450;-2.516;2023-01-31T08:34:07;8.61;99.04
69776;DHT22;57049;51.450;-2.516;2023-01-31T08:36:33;8.63;99.10
69776;DHT22;57049;51.450;-2.516;2023-01-31T08:39:00;8.64;99.15
69776;DHT22;57049;51.450;-2.516;2023-01-31T08:41:26;8.63;99.15
69776;DHT22;57049;51.450;-2.516;2023-01-31T08:43:52;8.67;99.15
69776;DHT22;57049;51.450;-2.516;2023-01-31T08:46:20;8.67;99.24
69776;DHT22;57049;51.450;-2.516;2023-01-31T08:48:46;8.68;99.23
69776;DHT22;57049;51.450;-2.516;2023-01-31T08:51:12;8.64;99.40
69776;DHT22;57049;51.450;-2.516;2023-01-31T08:53:42;8.71;99.30
69776;DHT22;57049;51.450;-2.516;2023-01-31T08:56:09;8.67;99.33
69776;DHT22;57049;51.450;-2.516;2023-01-31T08:58:37;8.68;99.43
69776;DHT22;57049;51.450;-2.516;2023-01-31T09:01:05;8.71;99.39
69776;DHT22;57049;51.450;-2.516;2023-01-31T09:03:31;8.73;99.33
69776;DHT22;57049;51.450;-2.516;2023-01-31T09:06:17;8.76;99.34
69776;DHT22;57049;51.450;-2.516;2023-01-31T09:08:46;8.80;99.31
69776;DHT22;57049;51.450;-2.516;2023-01-31T09:11:12;8.83;99.27
69776;DHT22;57049;51.450;-2.516;2023-01-31T09:13:44;8.81;99.29
69776;DHT22;57049;51.450;-2.516;2023-01-31T09:16:11;8.83;99.33
69776;DHT22;57049;51.450;-2.516;2023-01-31T09:18:38;8.81;99.41
69776;DHT22;57049;51.450;-2.516;2023-01-31T09:21:06;8.77;99.49
69776;DHT22;57049;51.450;-2.516;2023-01-31T09:23:33;8.84;99.45
69776;DHT22;57049;51.450;-2.516;2023-01-31T09:25:58;8.84;99.52
69776;DHT22;57049;51.450;-2.516;2023-01-31T09:28:27;8.85;99.52
69776;DHT22;57049;51.450;-2.516;2023-01-31T09:30:52;8.87;99.53
69776;DHT22;57049;51.450;-2.516;2023-01-31T09:33:20;8.85;99.63
69776;DHT22;57049;51.450;-2.516;2023-01-31T09:36:00;8.90;99.58
69776;DHT22;57049;51.450;-2.516;2023-01-31T09:38:31;8.97;99.49
69776;DHT22;57049;51.450;-2.516;2023-01-31T09:41:32;9.04;99.39
69776;DHT22;57049;51.450;-2.516;2023-01-31T09:43:57;9.10;99.36
69776;DHT22;57049;51.450;-2.516;2023-01-31T09:46:35;9.15;99.19
69776;DHT22;57049;51.450;-2.516;2023-01-31T09:49:02;9.22;98.98
69776;DHT22;57049;51.450;-2.516;2023-01-31T09:51:31;9.36;98.90
69776;DHT22;57049;51.450;-2.516;2023-01-31T09:53:59;9.43;98.70
69776;DHT22;57049;51.450;-2.516;2023-01-31T09:56:47;9.45;98.53
69776;DHT22;57049;51.450;-2.516;2023-01-31T09:59:28;9.58;98.38
69776;DHT22;57049;51.450;-2.516;2023-01-31T10:01:59;9.63;98.22
69776;DHT22;57049;51.450;-2.516;2023-01-31T10:07:27;9.69;98.13
69776;DHT22;57049;51.450;-2.516;2023-01-31T10:12:54;9.76;97.91
69776;DHT22;57049;51.450;-2.516;2023-01-31T10:15:30;9.87;97.76
69776;DHT22;57049;51.450;-2.516;2023-01-31T10:18:22;9.96;97.52
69776;DHT22;57049;51.450;-2.516;2023-01-31T10:20:57;10.06;97.48
69776;DHT22;57049;51.450;-2.516;2023-01-31T10:26:33;10.09;96.90
69776;DHT22;57049;51.450;-2.516;2023-01-31T10:34:14;9.87;97.11
69776;DHT22;57049;51.450;-2.516;2023-01-31T10:39:41;9.97;96.82
69776;DHT22;57049;51.450;-2.516;2023-01-31T10:42:36;10.09;96.69
69776;DHT22;57049;51.450;-2.516;2023-01-31T10:45:14;10.04;96.36
69776;DHT22;57049;51.450;-2.516;2023-01-31T10:58:16;9.83;96.71
69776;DHT22;57049;51.450;-2.516;2023-01-31T11:00:42;9.82;96.70
69776;DHT22;57049;51.450;-2.516;2023-01-31T11:03:11;9.86;96.60
69776;DHT22;57049;51.450;-2.516;2023-01-31T11:05:45;9.83;96.63
69776;DHT22;57049;51.450;-2.516;2023-01-31T11:10:51;9.92;96.43
69776;DHT22;57049;51.450;-2.516;2023-01-31T11:13:19;9.96;96.23
69776;DHT22;57049;51.450;-2.516;2023-01-31T11:15:46;9.93;96.26
69776;DHT22;57049;51.450;-2.516;2023-01-31T11:18:31;9.92;95.90
69776;DHT22;57049;51.450;-2.516;2023-01-31T11:20:58;9.92;95.91
69776;DHT22;57049;51.450;-2.516;2023-01-31T11:23:28;9.90;95.75
69776;DHT22;57049;51.450;-2.516;2023-01-31T11:25:55;9.93;95.61
69776;DHT22;57049;51.450;-2.516;2023-01-31T11:28:37;9.92;95.64
69776;DHT22;57049;51.450;-2.516;2023-01-31T11:31:06;9.86;95.81
69776;DHT22;57049;51.450;-2.516;2023-01-31T11:33:45;9.86;95.75
69776;DHT22;57049;51.450;-2.516;2023-01-31T11:36:17;9.89;95.68
69776;DHT22;57049;51.450;-2.516;2023-01-31T11:38:48;9.85;95.81
69776;DHT22;57049;51.450;-2.516;2023-01-31T11:41:31;10.00;95.87
69776;DHT22;57049;51.450;-2.516;2023-01-31T11:46:48;9.96;95.08
69776;DHT22;57049;51.450;-2.516;2023-01-31T11:49:40;9.85;94.96
69776;DHT22;57049;51.450;-2.516;2023-01-31T11:52:28;9.80;95.22
69776;DHT22;57049;51.450;-2.516;2023-01-31T11:54:58;9.70;95.27
69776;DHT22;57049;51.450;-2.516;2023-01-31T11:57:33;9.76;95.18
69776;DHT22;57049;51.450;-2.516;2023-01-31T12:00:02;9.87;95.03
69776;DHT22;57049;51.450;-2.516;2023-01-31T12:02:38;10.07;94.90
69776;DHT22;57049;51.450;-2.516;2023-01-31T12:05:09;10.30;94.40
69776;DHT22;57049;51.450;-2.516;2023-01-31T12:07:47;10.50;93.09
69776;DHT22;57049;51.450;-2.516;2023-01-31T12:10:34;10.74;91.58
69776;DHT22;57049;51.450;-2.516;2023-01-31T12:13:10;10.69;83.58
69776;DHT22;57049;51.450;-2.516;2023-01-31T12:18:13;10.62;82.79
69776;DHT22;57049;51.450;-2.516;2023-01-31T12:20:47;10.51;80.11
69776;DHT22;57049;51.450;-2.516;2023-01-31T12:23:36;10.45;79.80
69776;DHT22;57049;51.450;-2.516;2023-01-31T12:26:12;10.37;76.10
69776;DHT22;57049;51.450;-2.516;2023-01-31T12:35:02;10.48;74.86
69776;DHT22;57049;51.450;-2.516;2023-01-31T12:38:09;10.43;74.33
69776;DHT22;57049;51.450;-2.516;2023-01-31T12:43:45;10.55;74.06
69776;DHT22;57049;51.450;-2.516;2023-01-31T12:46:24;10.51;73.98
69776;DHT22;57049;51.450;-2.516;2023-01-31T12:55:26;10.47;73.81
69776;DHT22;57049;51.450;-2.516;2023-01-31T13:05:47;10.33;73.77
69776;DHT22;57049;51.450;-2.516;2023-01-31T13:08:30;10.36;72.75
69776;DHT22;57049;51.450;-2.516;2023-01-31T13:11:10;10.45;73.06
69776;DHT22;57049;51.450;-2.516;2023-01-31T13:13:42;10.64;73.46
69776;DHT22;57049;51.450;-2.516;2023-01-31T13:16:22;10.68;72.81
69776;DHT22;57049;51.450;-2.516;2023-01-31T13:18:51;10.84;73.26
69776;DHT22;57049;51.450;-2.516;2023-01-31T13:21:26;10.91;71.06
69776;DHT22;57049;51.450;-2.516;2023-01-31T13:24:12;10.95;71.07
69776;DHT22;57049;51.450;-2.516;2023-01-31T13:26:44;10.89;71.84
69776;DHT22;57049;51.450;-2.516;2023-01-31T13:29:31;10.89;70.08
69776;DHT22;57049;51.450;-2.516;2023-01-31T13:32:09;10.76;70.47
69776;DHT22;57049;51.450;-2.516;2023-01-31T13:34:48;10.85;70.39
69776;DHT22;57049;51.450;-2.516;2023-01-31T13:37:16;10.85;68.96
69776;DHT22;57049;51.450;-2.516;2023-01-31T13:39:49;11.06;69.99
69776;DHT22;57049;51.450;-2.516;2023-01-31T13:42:16;11.27;69.08
69776;DHT22;57049;51.450;-2.516;2023-01-31T13:44:43;11.43;69.06
69776;DHT22;57049;51.450;-2.516;2023-01-31T13:47:24;11.52;68.68
69776;DHT22;57049;51.450;-2.516;2023-01-31T13:49:56;11.42;68.22
69776;DHT22;57049;51.450;-2.516;2023-01-31T13:52:26;11.37;68.20
69776;DHT22;57049;51.450;-2.516;2023-01-31T13:54:59;11.44;68.50
69776;DHT22;57049;51.450;-2.516;2023-01-31T13:57:32;11.49;68.43
69776;DHT22;57049;51.450;-2.516;2023-01-31T14:03:15;11.44;67.91
69776;DHT22;57049;51.450;-2.516;2023-01-31T14:13:47;11.11;68.30
69776;DHT22;57049;51.450;-2.516;2023-01-31T14:16:36;11.06;68.59
69776;DHT22;57049;51.450;-2.516;2023-01-31T14:19:04;10.95;69.15
69776;DHT22;57049;51.450;-2.516;2023-01-31T14:23:58;11.12;69.33
69776;DHT22;57049;51.450;-2.516;2023-01-31T14:29:15;11.09;67.57
69776;DHT22;57049;51.450;-2.516;2023-01-31T14:31:43;11.15;67.60
69776;DHT22;57049;51.450;-2.516;2023-01-31T14:34:20;11.05;67.24
69776;DHT22;57049;51.450;-2.516;2023-01-31T14:37:17;10.99;66.23
69776;DHT22;57049;51.450;-2.516;2023-01-31T14:42:44;10.88;66.25
69776;DHT22;57049;51.450;-2.516;2023-01-31T14:59:24;10.51;66.48
69776;DHT22;57049;51.450;-2.516;2023-01-31T15:01:51;10.52;67.68
69776;DHT22;57049;51.450;-2.516;2023-01-31T15:04:21;10.44;68.35
69776;DHT22;57049;51.450;-2.516;2023-01-31T15:06:49;10.45;67.95
69776;DHT22;57049;51.450;-2.516;2023-01-31T15:11:54;10.27;68.02
69776;DHT22;57049;51.450;-2.516;2023-01-31T15:14:24;10.13;68.96
69776;DHT22;57049;51.450;-2.516;2023-01-31T15:16:57;10.03;68.87
69776;DHT22;57049;51.450;-2.516;2023-01-31T15:19:25;10.01;69.52
69776;DHT22;57049;51.450;-2.516;2023-01-31T15:22:17;9.97;68.94
69776;DHT22;57049;51.450;-2.516;2023-01-31T15:24:48;9.96;68.82
69776;DHT22;57049;51.450;-2.516;2023-01-31T15:32:33;9.79;70.31
69776;DHT22;57049;51.450;-2.516;2023-01-31T15:35:29;9.69;70.65
69776;DHT22;57049;51.450;-2.516;2023-01-31T15:38:08;9.75;71.19
69776;DHT22;57049;51.450;-2.516;2023-01-31T15:40:36;9.75;71.20
69776;DHT22;57049;51.450;-2.516;2023-01-31T15:45:40;9.72;70.75
69776;DHT22;57049;51.450;-2.516;2023-01-31T15:48:14;9.69;70.92
69776;DHT22;57049;51.450;-2.516;2023-01-31T15:50:56;9.55;68.90
69776;DHT22;57049;51.450;-2.516;2023-01-31T15:53:24;9.55;69.06
69776;DHT22;57049;51.450;-2.516;2023-01-31T15:55:53;9.49;68.76
69776;DHT22;57049;51.450;-2.516;2023-01-31T15:58:21;9.43;69.05
69776;DHT22;57049;51.450;-2.516;2023-01-31T16:00:53;9.36;69.79
69776;DHT22;57049;51.450;-2.516;2023-01-31T16:03:27;9.35;69.27
69776;DHT22;57049;51.450;-2.516;2023-01-31T16:05:55;9.28;69.51
69776;DHT22;57049;51.450;-2.516;2023-01-31T16:08:28;9.19;70.75
69776;DHT22;57049;51.450;-2.516;2023-01-31T16:10:57;9.10;70.44
69776;DHT22;57049;51.450;-2.516;2023-01-31T16:13:24;9.04;70.94
69776;DHT22;57049;51.450;-2.516;2023-01-31T16:15:50;8.92;71.10
69776;DHT22;57049;51.450;-2.516;2023-01-31T16:18:17;8.98;71.46
69776;DHT22;57049;51.450;-2.516;2023-01-31T16:21:13;8.91;71.04
69776;DHT22;57049;51.450;-2.516;2023-01-31T16:23:40;8.81;70.92
69776;DHT22;57049;51.450;-2.516;2023-01-31T16:26:14;8.77;71.48
69776;DHT22;57049;51.450;-2.516;2023-01-31T16:28:49;8.73;71.23
69776;DHT22;57049;51.450;-2.516;2023-01-31T16:31:18;8.63;72.26
69776;DHT22;57049;51.450;-2.516;2023-01-31T16:33:49;8.54;71.88
69776;DHT22;57049;51.450;-2.516;2023-01-31T16:36:20;8.53;71.78
69776;DHT22;57049;51.450;-2.516;2023-01-31T16:38:55;8.49;71.60
69776;DHT22;57049;51.450;-2.516;2023-01-31T16:41:49;8.46;71.93
69776;DHT22;57049;51.450;-2.516;2023-01-31T16:44:18;8.36;72.23
69776;DHT22;57049;51.450;-2.516;2023-01-31T16:46:46;8.29;72.07
69776;DHT22;57049;51.450;-2.516;2023-01-31T16:51:44;8.28;72.32
69776;DHT22;57049;51.450;-2.516;2023-01-31T16:56:47;8.15;72.60
69776;DHT22;57049;51.450;-2.516;2023-01-31T17:04:29;8.01;73.42
69776;DHT22;57049;51.450;-2.516;2023-01-31T17:07:04;8.05;73.15
69776;DHT22;57049;51.450;-2.516;2023-01-31T17:09:31;7.99;73.66
69776;DHT22;57049;51.450;-2.516;2023-01-31T17:11:57;7.94;73.92
69776;DHT22;57049;51.450;-2.516;2023-01-31T17:14:22;7.86;74.19
69776;DHT22;57049;51.450;-2.516;2023-01-31T17:16:52;7.78;74.89
69776;DHT22;57049;51.450;-2.516;2023-01-31T17:19:18;7.73;74.98
69776;DHT22;57049;51.450;-2.516;2023-01-31T17:21:44;7.63;75.16
69776;DHT22;57049;51.450;-2.516;2023-01-31T17:24:18;7.61;75.52
69776;DHT22;57049;51.450;-2.516;2023-01-31T17:26:44;7.64;75.26
69776;DHT22;57049;51.450;-2.516;2023-01-31T17:29:10;7.64;75.59
69776;DHT22;57049;51.450;-2.516;2023-01-31T17:31:36;7.54;76.01
69776;DHT22;57049;51.450;-2.516;2023-01-31T17:34:01;7.48;76.45
69776;DHT22;57049;51.450;-2.516;2023-01-31T17:36:28;7.50;76.51
69776;DHT22;57049;51.450;-2.516;2023-01-31T17:38:54;7.50;76.61
69776;DHT22;57049;51.450;-2.516;2023-01-31T17:41:20;7.43;76.71
69776;DHT22;57049;51.450;-2.516;2023-01-31T17:43:49;7.37;76.81
69776;DHT22;57049;51.450;-2.516;2023-01-31T17:46:16;7.35;76.66
69776;DHT22;57049;51.450;-2.516;2023-01-31T17:48:42;7.30;76.90
69776;DHT22;57049;51.450;-2.516;2023-01-31T17:51:09;7.22;77.20
69776;DHT22;57049;51.450;-2.516;2023-01-31T17:53:34;7.26;77.13
69776;DHT22;57049;51.450;-2.516;2023-01-31T17:56:00;7.19;77.22
69776;DHT22;57049;51.450;-2.516;2023-01-31T17:58:25;7.12;77.58
69776;DHT22;57049;51.450;-2.516;2023-01-31T18:00:52;7.09;77.61
69776;DHT22;57049;51.450;-2.516;2023-01-31T18:03:23;7.02;77.80